sensor_id;sensor_type;location;lat;lon;timestamp;P1;durP1;ratioP1;P2;durP2;ratioP2
14681;SDS011;7429;52.498;13.480;2023-02-10T00:00:44;28.63;;;16.23;;
14681;SDS011;7429;52.498;13.480;2023-02-10T00:03:47;30.07;;;17.37;;
14681;SDS011;7429;52.498;13.480;2023-02-10T00:06:51;30.90;;;18.37;;
14681;SDS011;7429;52.498;13.480;2023-02-10T00:09:55;24.83;;;15.93;;
14681;SDS011;7429;52.498;13.480;2023-02-10T00:12:59;27.73;;;17.00;;
14681;SDS011;7429;52.498;13.480;2023-02-10T00:16:02;30.03;;;18.30;;
14681;SDS011;7429;52.498;13.480;2023-02-10T00:19:08;29.83;;;18.33;;
14681;SDS011;7429;52.498;13.480;2023-02-10T00:22:11;31.73;;;18.20;;
14681;SDS011;7429;52.498;13.480;2023-02-10T00:25:15;26.60;;;16.87;;
14681;SDS011;7429;52.498;13.480;2023-02-10T00:28:18;26.37;;;16.47;;
14681;SDS011;7429;52.498;13.480;2023-02-10T00:31:21;32.67;;;18.20;;
14681;SDS011;7429;52.498;13.480;2023-02-10T00:34:25;29.70;;;18.13;;
14681;SDS011;7429;52.498;13.480;2023-02-10T00:37:29;30.63;;;18.07;;
14681;SDS011;7429;52.498;13.480;2023-02-10T00:40:33;30.80;;;19.10;;
14681;SDS011;7429;52.498;13.480;2023-02-10T00:43:36;29.73;;;18.33;;
14681;SDS011;7429;52.498;13.480;2023-02-10T00:46:40;31.70;;;18.37;;
14681;SDS011;7429;52.498;13.480;2023-02-10T00:49:44;32.27;;;17.90;;
14681;SDS011;7429;52.498;13.480;2023-02-10T00:52:47;30.00;;;17.43;;
14681;SDS011;7429;52.498;13.480;2023-02-10T00:55:52;29.37;;;19.90;;
14681;SDS011;7429;52.498;13.480;2023-02-10T00:58:57;27.67;;;17.80;;
14681;SDS011;7429;52.498;13.480;2023-02-10T01:02:00;28.30;;;18.67;;
14681;SDS011;7429;52.498;13.480;2023-02-10T01:05:05;27.67;;;17.83;;
14681;SDS011;7429;52.498;13.480;2023-02-10T01:08:09;27.37;;;18.20;;
14681;SDS011;7429;52.498;13.480;2023-02-10T01:11:15;33.40;;;19.37;;
14681;SDS011;7429;52.498;13.480;2023-02-10T01:14:19;35.50;;;19.73;;
14681;SDS011;7429;52.498;13.480;2023-02-10T01:17:25;32.67;;;19.27;;
14681;SDS011;7429;52.498;13.480;2023-02-10T01:20:29;31.23;;;18.90;;
14681;SDS011;7429;52.498;13.480;2023-02-10T01:23:35;33.83;;;19.40;;
14681;SDS011;7429;52.498;13.480;2023-02-10T01:26:39;32.60;;;19.17;;
14681;SDS011;7429;52.498;13.480;2023-02-10T01:29:42;30.23;;;19.00;;
14681;SDS011;7429;52.498;13.480;2023-02-10T01:32:45;28.20;;;18.60;;
14681;SDS011;7429;52.498;13.480;2023-02-10T01:35:48;30.23;;;17.80;;
14681;SDS011;7429;52.498;13.480;2023-02-10T01:38:52;29.97;;;18.93;;
14681;SDS011;7429;52.498;13.480;2023-02-10T01:41:56;28.57;;;19.07;;
14681;SDS011;7429;52.498;13.480;2023-02-10T01:48:22;34.20;;;19.80;;
14681;SDS011;7429;52.498;13.480;2023-02-10T01:51:29;29.30;;;18.67;;
14681;SDS011;7429;52.498;13.480;2023-02-10T01:54:42;28.90;;;18.87;;
14681;SDS011;7429;52.498;13.480;2023-02-10T01:57:51;35.27;;;19.60;;
14681;SDS011;7429;52.498;13.480;2023-02-10T02:00:55;39.37;;;21.70;;
14681;SDS011;7429;52.498;13.480;2023-02-10T02:03:59;32.47;;;19.37;;
14681;SDS011;7429;52.498;13.480;2023-02-10T02:07:04;33.73;;;19.63;;
14681;SDS011;7429;52.498;13.480;2023-02-10T02:10:07;33.90;;;20.50;;
14681;SDS011;7429;52.498;13.480;2023-02-10T02:13:14;31.37;;;19.63;;
14681;SDS011;7429;52.498;13.480;2023-02-10T02:16:27;34.73;;;20.50;;
14681;SDS011;7429;52.498;13.480;2023-02-10T02:23:46;33.07;;;20.27;;
14681;SDS011;7429;52.498;13.480;2023-02-10T02:27:31;44.07;;;21.20;;
14681;SDS011;7429;52.498;13.480;2023-02-10T02:31:02;34.93;;;20.50;;
14681;SDS011;7429;52.498;13.480;2023-02-10T02:34:36;37.57;;;21.30;;
14681;SDS011;7429;52.498;13.480;2023-02-10T02:37:44;35.60;;;20.60;;
14681;SDS011;7429;52.498;13.480;2023-02-10T02:40:50;35.93;;;20.57;;
14681;SDS011;7429;52.498;13.480;2023-02-10T02:43:57;41.43;;;21.47;;
14681;SDS011;7429;52.498;13.480;2023-02-10T02:47:06;34.30;;;20.63;;
14681;SDS011;7429;52.498;13.480;2023-02-10T02:50:20;36.40;;;21.23;;
14681;SDS011;7429;52.498;13.480;2023-02-10T02:53:31;32.57;;;19.70;;
14681;SDS011;7429;52.498;13.480;2023-02-10T02:56:43;35.10;;;20.10;;
14681;SDS011;7429;52.498;13.480;2023-02-10T02:59:53;37.13;;;20.93;;
14681;SDS011;7429;52.498;13.480;2023-02-10T03:03:09;33.83;;;19.40;;
14681;SDS011;7429;52.498;13.480;2023-02-10T03:06:12;30.87;;;18.37;;
14681;SDS011;7429;52.498;13.480;2023-02-10T03:09:16;43.00;;;20.63;;
14681;SDS011;7429;52.498;13.480;2023-02-10T03:12:19;35.30;;;21.20;;
14681;SDS011;7429;52.498;13.480;2023-02-10T03:15:23;33.00;;;20.47;;
14681;SDS011;7429;52.498;13.480;2023-02-10T03:18:28;39.10;;;21.03;;
14681;SDS011;7429;52.498;13.480;2023-02-10T03:21:33;35.03;;;21.90;;
14681;SDS011;7429;52.498;13.480;2023-02-10T03:24:37;35.43;;;20.40;;
14681;SDS011;7429;52.498;13.480;2023-02-10T03:27:40;36.13;;;20.90;;
14681;SDS011;7429;52.498;13.480;2023-02-10T03:30:46;34.13;;;20.83;;
14681;SDS011;7429;52.498;13.480;2023-02-10T03:33:52;41.37;;;21.70;;
14681;SDS011;7429;52.498;13.480;2023-02-10T03:36:55;38.17;;;21.53;;
14681;SDS011;7429;52.498;13.480;2023-02-10T03:39:58;38.13;;;22.23;;
14681;SDS011;7429;52.498;13.480;2023-02-10T03:43:01;42.60;;;22.53;;
14681;SDS011;7429;52.498;13.480;2023-02-10T03:46:08;41.17;;;23.40;;
14681;SDS011;7429;52.498;13.480;2023-02-10T03:49:13;39.70;;;23.80;;
14681;SDS011;7429;52.498;13.480;2023-02-10T03:52:16;37.07;;;23.13;;
14681;SDS011;7429;52.498;13.480;2023-02-10T03:55:19;43.60;;;24.23;;
14681;SDS011;7429;52.498;13.480;2023-02-10T03:58:23;45.97;;;25.27;;
14681;SDS011;7429;52.498;13.480;2023-02-10T04:01:27;44.80;;;26.90;;
14681;SDS011;7429;52.498;13.480;2023-02-10T04:04:31;42.50;;;23.60;;
14681;SDS011;7429;52.498;13.480;2023-02-10T04:07:34;45.93;;;25.63;;
14681;SDS011;7429;52.498;13.480;2023-02-10T04:10:38;47.07;;;27.00;;
14681;SDS011;7429;52.498;13.480;2023-02-10T04:13:41;47.10;;;26.63;;
14681;SDS011;7429;52.498;13.480;2023-02-10T04:16:44;43.57;;;27.07;;
14681;SDS011;7429;52.498;13.480;2023-02-10T04:19:49;44.30;;;27.50;;
14681;SDS011;7429;52.498;13.480;2023-02-10T04:22:52;55.33;;;29.53;;
14681;SDS011;7429;52.498;13.480;2023-02-10T04:25:55;46.93;;;28.80;;
14681;SDS011;7429;52.498;13.480;2023-02-10T04:28:59;50.43;;;27.47;;
14681;SDS011;7429;52.498;13.480;2023-02-10T04:32:03;50.77;;;27.47;;
14681;SDS011;7429;52.498;13.480;2023-02-10T04:35:08;50.47;;;28.33;;
14681;SDS011;7429;52.498;13.480;2023-02-10T04:38:12;52.43;;;28.70;;
14681;SDS011;7429;52.498;13.480;2023-02-10T04:41:15;49.37;;;27.80;;
14681;SDS011;7429;52.498;13.480;2023-02-10T04:44:18;53.73;;;28.97;;
14681;SDS011;7429;52.498;13.480;2023-02-10T04:47:21;55.57;;;29.00;;
14681;SDS011;7429;52.498;13.480;2023-02-10T04:50:25;58.23;;;29.70;;
14681;SDS011;7429;52.498;13.480;2023-02-10T04:53:29;50.53;;;28.07;;
14681;SDS011;7429;52.498;13.480;2023-02-10T04:56:32;51.70;;;28.93;;
14681;SDS011;7429;52.498;13.480;2023-02-10T04:59:35;58.93;;;30.93;;
14681;SDS011;7429;52.498;13.480;2023-02-10T05:02:38;53.57;;;30.17;;
14681;SDS011;7429;52.498;13.480;2023-02-10T05:05:43;57.47;;;29.57;;
14681;SDS011;7429;52.498;13.480;2023-02-10T05:08:47;58.50;;;31.80;;
14681;SDS011;7429;52.498;13.480;2023-02-10T05:11:50;63.93;;;31.27;;
14681;SDS011;7429;52.498;13.480;2023-02-10T05:14:53;54.10;;;30.17;;
14681;SDS011;7429;52.498;13.480;2023-02-10T05:17:57;59.13;;;30.80;;
14681;SDS011;7429;52.498;13.480;2023-02-10T05:21:01;57.83;;;32.27;;
14681;SDS011;7429;52.498;13.480;2023-02-10T05:24:05;56.17;;;30.87;;
14681;SDS011;7429;52.498;13.480;2023-02-10T05:27:08;60.23;;;30.27;;
14681;SDS011;7429;52.498;13.480;2023-02-10T05:30:12;51.57;;;30.20;;
14681;SDS011;7429;52.498;13.480;2023-02-10T05:33:15;55.07;;;31.07;;
14681;SDS011;7429;52.498;13.480;2023-02-10T05:36:23;58.43;;;31.40;;
14681;SDS011;7429;52.498;13.480;2023-02-10T05:39:32;55.50;;;31.23;;
14681;SDS011;7429;52.498;13.480;2023-02-10T05:42:35;56.60;;;30.87;;
14681;SDS011;7429;52.498;13.480;2023-02-10T05:45:41;55.63;;;30.97;;
14681;SDS011;7429;52.498;13.480;2023-02-10T05:48:44;62.07;;;32.83;;
14681;SDS011;7429;52.498;13.480;2023-02-10T05:51:49;58.03;;;30.47;;
14681;SDS011;7429;52.498;13.480;2023-02-10T05:54:52;58.23;;;30.93;;
14681;SDS011;7429;52.498;13.480;2023-02-10T05:57:56;60.67;;;31.37;;
14681;SDS011;7429;52.498;13.480;2023-02-10T06:01:00;61.63;;;32.43;;
14681;SDS011;7429;52.498;13.480;2023-02-10T06:04:03;59.40;;;31.37;;
14681;SDS011;7429;52.498;13.480;2023-02-10T06:07:08;60.13;;;33.10;;
14681;SDS011;7429;52.498;13.480;2023-02-10T06:10:11;58.27;;;31.97;;
14681;SDS011;7429;52.498;13.480;2023-02-10T06:13:14;55.50;;;31.47;;
14681;SDS011;7429;52.498;13.480;2023-02-10T06:16:18;54.83;;;32.07;;
14681;SDS011;7429;52.498;13.480;2023-02-10T06:19:21;52.33;;;29.50;;
14681;SDS011;7429;52.498;13.480;2023-02-10T06:22:33;57.03;;;31.73;;
14681;SDS011;7429;52.498;13.480;2023-02-10T06:25:36;59.80;;;31.47;;
14681;SDS011;7429;52.498;13.480;2023-02-10T06:28:41;58.30;;;32.63;;
14681;SDS011;7429;52.498;13.480;2023-02-10T06:31:45;59.57;;;31.53;;
14681;SDS011;7429;52.498;13.480;2023-02-10T06:34:57;65.83;;;32.00;;
14681;SDS011;7429;52.498;13.480;2023-02-10T06:38:07;64.17;;;32.00;;
14681;SDS011;7429;52.498;13.480;2023-02-10T06:41:11;63.43;;;32.47;;
14681;SDS011;7429;52.498;13.480;2023-02-10T06:44:19;59.73;;;31.93;;
14681;SDS011;7429;52.498;13.480;2023-02-10T06:47:26;54.70;;;31.07;;
14681;SDS011;7429;52.498;13.480;2023-02-10T06:50:29;58.20;;;34.23;;
14681;SDS011;7429;52.498;13.480;2023-02-10T06:53:34;62.43;;;31.97;;
14681;SDS011;7429;52.498;13.480;2023-02-10T06:56:39;62.50;;;33.53;;
14681;SDS011;7429;52.498;13.480;2023-02-10T06:59:43;61.87;;;31.27;;
14681;SDS011;7429;52.498;13.480;2023-02-10T07:02:47;65.83;;;31.77;;
14681;SDS011;7429;52.498;13.480;2023-02-10T07:05:50;63.97;;;32.37;;
14681;SDS011;7429;52.498;13.480;2023-02-10T07:08:56;59.73;;;31.20;;
14681;SDS011;7429;52.498;13.480;2023-02-10T07:11:59;62.37;;;32.20;;
14681;SDS011;7429;52.498;13.480;2023-02-10T07:15:03;64.33;;;32.40;;
14681;SDS011;7429;52.498;13.480;2023-02-10T07:18:07;60.13;;;31.03;;
14681;SDS011;7429;52.498;13.480;2023-02-10T07:21:13;56.50;;;30.10;;
14681;SDS011;7429;52.498;13.480;2023-02-10T07:24:17;64.00;;;32.50;;
14681;SDS011;7429;52.498;13.480;2023-02-10T07:27:21;66.67;;;33.20;;
14681;SDS011;7429;52.498;13.480;2023-02-10T07:30:24;62.00;;;31.77;;
14681;SDS011;7429;52.498;13.480;2023-02-10T07:33:28;68.40;;;30.97;;
14681;SDS011;7429;52.498;13.480;2023-02-10T07:36:31;64.83;;;32.17;;
14681;SDS011;7429;52.498;13.480;2023-02-10T07:39:36;56.23;;;30.67;;
14681;SDS011;7429;52.498;13.480;2023-02-10T07:42:44;60.03;;;32.10;;
14681;SDS011;7429;52.498;13.480;2023-02-10T07:46:07;59.43;;;31.80;;
14681;SDS011;7429;52.498;13.480;2023-02-10T07:49:10;57.77;;;31.37;;
14681;SDS011;7429;52.498;13.480;2023-02-10T07:52:14;56.20;;;29.90;;
14681;SDS011;7429;52.498;13.480;2023-02-10T07:55:18;59.50;;;31.87;;
14681;SDS011;7429;52.498;13.480;2023-02-10T07:58:23;62.07;;;32.37;;
14681;SDS011;7429;52.498;13.480;2023-02-10T08:01:26;57.63;;;30.13;;
14681;SDS011;7429;52.498;13.480;2023-02-10T08:04:29;64.60;;;32.10;;
14681;SDS011;7429;52.498;13.480;2023-02-10T08:07:33;58.17;;;31.23;;
14681;SDS011;7429;52.498;13.480;2023-02-10T08:10:37;64.10;;;31.83;;
14681;SDS011;7429;52.498;13.480;2023-02-10T08:13:42;63.57;;;31.87;;
14681;SDS011;7429;52.498;13.480;2023-02-10T08:16:45;73.90;;;33.17;;
14681;SDS011;7429;52.498;13.480;2023-02-10T08:19:49;55.73;;;30.17;;
14681;SDS011;7429;52.498;13.480;2023-02-10T08:22:53;56.00;;;31.97;;
14681;SDS011;7429;52.498;13.480;2023-02-10T08:25:58;56.90;;;30.67;;
14681;SDS011;7429;52.498;13.480;2023-02-10T08:29:06;55.07;;;31.20;;
14681;SDS011;7429;52.498;13.480;2023-02-10T08:32:09;60.40;;;31.73;;
14681;SDS011;7429;52.498;13.480;2023-02-10T08:35:14;54.17;;;29.63;;
14681;SDS011;7429;52.498;13.480;2023-02-10T08:38:17;58.43;;;29.37;;
14681;SDS011;7429;52.498;13.480;2023-02-10T08:41:22;55.20;;;31.93;;
14681;SDS011;7429;52.498;13.480;2023-02-10T08:44:25;53.97;;;29.00;;
14681;SDS011;7429;52.498;13.480;2023-02-10T08:47:28;54.37;;;30.67;;
14681;SDS011;7429;52.498;13.480;2023-02-10T08:50:31;54.63;;;30.40;;
14681;SDS011;7429;52.498;13.480;2023-02-10T08:53:34;59.63;;;31.40;;
14681;SDS011;7429;52.498;13.480;2023-02-10T08:56:39;52.33;;;30.03;;
14681;SDS011;7429;52.498;13.480;2023-02-10T08:59:42;60.27;;;29.70;;
14681;SDS011;7429;52.498;13.480;2023-02-10T09:02:47;62.30;;;29.53;;
14681;SDS011;7429;52.498;13.480;2023-02-10T09:05:51;56.33;;;30.63;;
14681;SDS011;7429;52.498;13.480;2023-02-10T09:08:55;60.77;;;32.00;;
14681;SDS011;7429;52.498;13.480;2023-02-10T09:12:02;56.87;;;30.87;;
14681;SDS011;7429;52.498;13.480;2023-02-10T09:15:07;61.47;;;29.70;;
14681;SDS011;7429;52.498;13.480;2023-02-10T09:18:11;63.90;;;32.80;;
14681;SDS011;7429;52.498;13.480;2023-02-10T09:21:14;59.90;;;31.97;;
14681;SDS011;7429;52.498;13.480;2023-02-10T09:24:18;60.23;;;32.17;;
14681;SDS011;7429;52.498;13.480;2023-02-10T09:27:22;60.63;;;32.00;;
14681;SDS011;7429;52.498;13.480;2023-02-10T09:30:26;62.03;;;32.43;;
14681;SDS011;7429;52.498;13.480;2023-02-10T09:33:29;63.10;;;31.53;;
14681;SDS011;7429;52.498;13.480;2023-02-10T09:36:33;52.53;;;30.67;;
14681;SDS011;7429;52.498;13.480;2023-02-10T09:39:36;62.50;;;32.77;;
14681;SDS011;7429;52.498;13.480;2023-02-10T09:42:44;65.53;;;36.00;;
14681;SDS011;7429;52.498;13.480;2023-02-10T09:46:05;63.60;;;32.83;;
14681;SDS011;7429;52.498;13.480;2023-02-10T09:49:21;61.37;;;33.37;;
14681;SDS011;7429;52.498;13.480;2023-02-10T09:52:52;70.83;;;35.77;;
14681;SDS011;7429;52.498;13.480;2023-02-10T09:56:09;55.03;;;29.70;;
14681;SDS011;7429;52.498;13.480;2023-02-10T09:59:23;63.03;;;32.90;;
14681;SDS011;7429;52.498;13.480;2023-02-10T10:02:28;69.30;;;34.37;;
14681;SDS011;7429;52.498;13.480;2023-02-10T10:05:41;61.90;;;34.70;;
14681;SDS011;7429;52.498;13.480;2023-02-10T10:08:55;65.70;;;33.07;;
14681;SDS011;7429;52.498;13.480;2023-02-10T10:12:04;64.80;;;32.60;;
14681;SDS011;7429;52.498;13.480;2023-02-10T10:15:15;63.17;;;32.27;;
14681;SDS011;7429;52.498;13.480;2023-02-10T10:18:21;59.27;;;30.60;;
14681;SDS011;7429;52.498;13.480;2023-02-10T10:21:33;65.70;;;31.93;;
14681;SDS011;7429;52.498;13.480;2023-02-10T10:25:03;53.80;;;30.03;;
14681;SDS011;7429;52.498;13.480;2023-02-10T10:28:33;61.97;;;32.20;;
14681;SDS011;7429;52.498;13.480;2023-02-10T10:31:50;64.77;;;30.90;;
14681;SDS011;7429;52.498;13.480;2023-02-10T10:35:01;60.70;;;31.83;;
14681;SDS011;7429;52.498;13.480;2023-02-10T10:38:10;60.53;;;30.83;;
14681;SDS011;7429;52.498;13.480;2023-02-10T10:41:17;55.93;;;29.37;;
14681;SDS011;7429;52.498;13.480;2023-02-10T10:44:25;58.73;;;30.83;;
14681;SDS011;7429;52.498;13.480;2023-02-10T10:47:36;65.83;;;32.67;;
14681;SDS011;7429;52.498;13.480;2023-02-10T10:50:44;60.97;;;31.60;;
14681;SDS011;7429;52.498;13.480;2023-02-10T10:53:48;64.30;;;31.77;;
14681;SDS011;7429;52.498;13.480;2023-02-10T10:56:54;60.50;;;31.10;;
14681;SDS011;7429;52.498;13.480;2023-02-10T11:00:03;60.27;;;30.20;;
14681;SDS011;7429;52.498;13.480;2023-02-10T11:03:19;59.90;;;32.77;;
14681;SDS011;7429;52.498;13.480;2023-02-10T11:06:26;55.53;;;28.93;;
14681;SDS011;7429;52.498;13.480;2023-02-10T11:09:36;58.97;;;28.47;;
14681;SDS011;7429;52.498;13.480;2023-02-10T11:12:44;53.97;;;29.40;;
14681;SDS011;7429;52.498;13.480;2023-02-10T11:15:48;62.17;;;30.27;;
14681;SDS011;7429;52.498;13.480;2023-02-10T11:18:54;61.53;;;29.10;;
14681;SDS011;7429;52.498;13.480;2023-02-10T11:22:00;51.23;;;26.93;;
14681;SDS011;7429;52.498;13.480;2023-02-10T11:25:17;56.70;;;28.53;;
14681;SDS011;7429;52.498;13.480;2023-02-10T11:28:29;53.50;;;29.20;;
14681;SDS011;7429;52.498;13.480;2023-02-10T11:31:34;51.70;;;29.63;;
14681;SDS011;7429;52.498;13.480;2023-02-10T11:34:42;56.37;;;28.17;;
14681;SDS011;7429;52.498;13.480;2023-02-10T11:37:51;63.77;;;28.73;;
14681;SDS011;7429;52.498;13.480;2023-02-10T11:40:57;54.23;;;28.80;;
14681;SDS011;7429;52.498;13.480;2023-02-10T11:44:02;58.70;;;28.53;;
14681;SDS011;7429;52.498;13.480;2023-02-10T11:47:27;50.40;;;27.47;;
14681;SDS011;7429;52.498;13.480;2023-02-10T11:50:34;51.00;;;26.50;;
14681;SDS011;7429;52.498;13.480;2023-02-10T11:53:39;55.80;;;29.33;;
14681;SDS011;7429;52.498;13.480;2023-02-10T11:56:44;55.47;;;29.40;;
14681;SDS011;7429;52.498;13.480;2023-02-10T12:00:18;49.57;;;28.33;;
14681;SDS011;7429;52.498;13.480;2023-02-10T12:03:32;53.73;;;28.83;;
14681;SDS011;7429;52.498;13.480;2023-02-10T12:06:49;55.83;;;28.57;;
14681;SDS011;7429;52.498;13.480;2023-02-10T12:10:04;50.37;;;27.90;;
14681;SDS011;7429;52.498;13.480;2023-02-10T12:13:22;47.87;;;25.87;;
14681;SDS011;7429;52.498;13.480;2023-02-10T12:16:35;62.07;;;28.47;;
14681;SDS011;7429;52.498;13.480;2023-02-10T12:19:47;50.87;;;27.50;;
14681;SDS011;7429;52.498;13.480;2023-02-10T12:23:15;56.80;;;29.00;;
14681;SDS011;7429;52.498;13.480;2023-02-10T12:26:45;51.80;;;28.00;;
14681;SDS011;7429;52.498;13.480;2023-02-10T12:29:57;56.50;;;28.23;;
14681;SDS011;7429;52.498;13.480;2023-02-10T12:36:56;55.33;;;28.17;;
14681;SDS011;7429;52.498;13.480;2023-02-10T12:40:17;49.40;;;26.37;;
14681;SDS011;7429;52.498;13.480;2023-02-10T12:43:38;49.90;;;26.97;;
14681;SDS011;7429;52.498;13.480;2023-02-10T12:47:07;53.60;;;26.93;;
14681;SDS011;7429;52.498;13.480;2023-02-10T12:50:33;46.90;;;26.50;;
14681;SDS011;7429;52.498;13.480;2023-02-10T12:53:53;54.03;;;25.83;;
14681;SDS011;7429;52.498;13.480;2023-02-10T12:57:05;46.60;;;25.97;;
14681;SDS011;7429;52.498;13.480;2023-02-10T13:00:12;43.83;;;27.03;;
14681;SDS011;7429;52.498;13.480;2023-02-10T13:03:19;47.63;;;26.90;;
14681;SDS011;7429;52.498;13.480;2023-02-10T13:06:30;48.33;;;24.90;;
14681;SDS011;7429;52.498;13.480;2023-02-10T13:09:38;44.43;;;24.63;;
14681;SDS011;7429;52.498;13.480;2023-02-10T13:12:47;49.60;;;25.20;;
14681;SDS011;7429;52.498;13.480;2023-02-10T13:15:52;42.93;;;24.27;;
14681;SDS011;7429;52.498;13.480;2023-02-10T13:19:02;40.83;;;24.83;;
14681;SDS011;7429;52.498;13.480;2023-02-10T13:22:13;42.33;;;24.03;;
14681;SDS011;7429;52.498;13.480;2023-02-10T13:25:24;43.57;;;23.90;;
14681;SDS011;7429;52.498;13.480;2023-02-10T13:28:42;43.97;;;24.10;;
14681;SDS011;7429;52.498;13.480;2023-02-10T13:35:40;46.27;;;24.07;;
14681;SDS011;7429;52.498;13.480;2023-02-10T13:38:48;49.00;;;23.60;;
14681;SDS011;7429;52.498;13.480;2023-02-10T13:42:03;42.83;;;21.70;;
14681;SDS011;7429;52.498;13.480;2023-02-10T13:45:18;40.30;;;22.40;;
14681;SDS011;7429;52.498;13.480;2023-02-10T13:48:25;40.33;;;21.30;;
14681;SDS011;7429;52.498;13.480;2023-02-10T13:51:41;43.97;;;22.40;;
14681;SDS011;7429;52.498;13.480;2023-02-10T13:54:52;36.07;;;19.67;;
14681;SDS011;7429;52.498;13.480;2023-02-10T13:58:14;44.17;;;21.77;;
14681;SDS011;7429;52.498;13.480;2023-02-10T14:01:35;39.43;;;20.40;;
14681;SDS011;7429;52.498;13.480;2023-02-10T14:04:42;36.70;;;20.23;;
14681;SDS011;7429;52.498;13.480;2023-02-10T14:07:48;46.80;;;21.03;;
14681;SDS011;7429;52.498;13.480;2023-02-10T14:10:55;45.13;;;22.47;;
14681;SDS011;7429;52.498;13.480;2023-02-10T14:14:01;38.47;;;20.70;;
14681;SDS011;7429;52.498;13.480;2023-02-10T14:17:22;36.67;;;22.10;;
14681;SDS011;7429;52.498;13.480;2023-02-10T14:20:35;41.33;;;22.13;;
14681;SDS011;7429;52.498;13.480;2023-02-10T14:23:40;42.93;;;21.07;;
14681;SDS011;7429;52.498;13.480;2023-02-10T14:26:50;42.80;;;22.40;;
14681;SDS011;7429;52.498;13.480;2023-02-10T14:29:55;34.47;;;21.40;;
14681;SDS011;7429;52.498;13.480;2023-02-10T14:33:20;43.33;;;23.43;;
14681;SDS011;7429;52.498;13.480;2023-02-10T14:36:28;37.63;;;21.87;;
14681;SDS011;7429;52.498;13.480;2023-02-10T14:39:32;38.30;;;22.20;;
14681;SDS011;7429;52.498;13.480;2023-02-10T14:42:35;41.80;;;21.13;;
14681;SDS011;7429;52.498;13.480;2023-02-10T14:45:38;40.27;;;20.63;;
14681;SDS011;7429;52.498;13.480;2023-02-10T14:48:43;38.60;;;20.70;;
14681;SDS011;7429;52.498;13.480;2023-02-10T14:51:47;43.77;;;22.07;;
14681;SDS011;7429;52.498;13.480;2023-02-10T14:54:51;39.00;;;21.30;;
14681;SDS011;7429;52.498;13.480;2023-02-10T14:57:57;38.33;;;21.23;;
14681;SDS011;7429;52.498;13.480;2023-02-10T15:01:09;39.67;;;20.67;;
14681;SDS011;7429;52.498;13.480;2023-02-10T15:04:21;40.93;;;22.30;;
14681;SDS011;7429;52.498;13.480;2023-02-10T15:07:30;37.53;;;21.53;;
14681;SDS011;7429;52.498;13.480;2023-02-10T15:10:37;38.70;;;22.00;;
14681;SDS011;7429;52.498;13.480;2023-02-10T15:13:48;44.70;;;22.43;;
14681;SDS011;7429;52.498;13.480;2023-02-10T15:16:55;39.73;;;23.03;;
14681;SDS011;7429;52.498;13.480;2023-02-10T15:20:20;44.47;;;24.10;;
14681;SDS011;7429;52.498;13.480;2023-02-10T15:23:31;45.53;;;23.47;;
14681;SDS011;7429;52.498;13.480;2023-02-10T15:26:37;39.53;;;23.13;;
14681;SDS011;7429;52.498;13.480;2023-02-10T15:29:42;37.27;;;22.20;;
14681;SDS011;7429;52.498;13.480;2023-02-10T15:32:47;42.47;;;23.33;;
14681;SDS011;7429;52.498;13.480;2023-02-10T15:35:55;41.87;;;24.07;;
14681;SDS011;7429;52.498;13.480;2023-02-10T15:39:15;48.10;;;25.57;;
14681;SDS011;7429;52.498;13.480;2023-02-10T15:42:26;37.50;;;23.10;;
14681;SDS011;7429;52.498;13.480;2023-02-10T15:45:32;46.97;;;22.93;;
14681;SDS011;7429;52.498;13.480;2023-02-10T15:48:35;39.90;;;22.57;;
14681;SDS011;7429;52.498;13.480;2023-02-10T15:51:43;44.40;;;23.53;;
14681;SDS011;7429;52.498;13.480;2023-02-10T15:54:49;43.53;;;24.17;;
14681;SDS011;7429;52.498;13.480;2023-02-10T15:57:53;43.07;;;23.00;;
14681;SDS011;7429;52.498;13.480;2023-02-10T16:00:57;46.13;;;25.43;;
14681;SDS011;7429;52.498;13.480;2023-02-10T16:04:03;46.17;;;24.57;;
14681;SDS011;7429;52.498;13.480;2023-02-10T16:07:10;39.83;;;24.20;;
14681;SDS011;7429;52.498;13.480;2023-02-10T16:10:22;46.37;;;25.47;;
14681;SDS011;7429;52.498;13.480;2023-02-10T16:13:27;54.17;;;26.17;;
14681;SDS011;7429;52.498;13.480;2023-02-10T16:16:30;42.77;;;24.70;;
14681;SDS011;7429;52.498;13.480;2023-02-10T16:19:34;43.50;;;23.77;;
14681;SDS011;7429;52.498;13.480;2023-02-10T16:22:38;45.00;;;24.03;;
14681;SDS011;7429;52.498;13.480;2023-02-10T16:25:42;42.40;;;23.73;;
14681;SDS011;7429;52.498;13.480;2023-02-10T16:28:50;45.87;;;23.00;;
14681;SDS011;7429;52.498;13.480;2023-02-10T16:31:54;50.63;;;24.37;;
14681;SDS011;7429;52.498;13.480;2023-02-10T16:34:57;46.67;;;23.67;;
14681;SDS011;7429;52.498;13.480;2023-02-10T16:38:01;49.47;;;25.30;;
14681;SDS011;7429;52.498;13.480;2023-02-10T16:41:15;42.37;;;24.30;;
14681;SDS011;7429;52.498;13.480;2023-02-10T16:44:18;48.93;;;24.57;;
14681;SDS011;7429;52.498;13.480;2023-02-10T16:47:21;47.23;;;24.73;;
14681;SDS011;7429;52.498;13.480;2023-02-10T16:50:25;46.10;;;23.90;;
14681;SDS011;7429;52.498;13.480;2023-02-10T16:53:35;42.73;;;25.13;;
14681;SDS011;7429;52.498;13.480;2023-02-10T16:56:39;58.03;;;26.40;;
14681;SDS011;7429;52.498;13.480;2023-02-10T16:59:45;55.63;;;25.30;;
14681;SDS011;7429;52.498;13.480;2023-02-10T17:02:50;47.10;;;26.70;;
14681;SDS011;7429;52.498;13.480;2023-02-10T17:05:53;51.03;;;26.03;;
14681;SDS011;7429;52.498;13.480;2023-02-10T17:08:58;47.90;;;25.57;;
14681;SDS011;7429;52.498;13.480;2023-02-10T17:12:01;51.73;;;24.27;;
14681;SDS011;7429;52.498;13.480;2023-02-10T17:15:04;55.20;;;23.17;;
14681;SDS011;7429;52.498;13.480;2023-02-10T17:18:08;47.20;;;24.50;;
14681;SDS011;7429;52.498;13.480;2023-02-10T17:21:14;38.47;;;23.07;;
14681;SDS011;7429;52.498;13.480;2023-02-10T17:24:18;40.63;;;23.53;;
14681;SDS011;7429;52.498;13.480;2023-02-10T17:27:24;51.17;;;25.17;;
14681;SDS011;7429;52.498;13.480;2023-02-10T17:30:27;43.70;;;24.23;;
14681;SDS011;7429;52.498;13.480;2023-02-10T17:33:30;53.97;;;25.20;;
14681;SDS011;7429;52.498;13.480;2023-02-10T17:36:49;48.60;;;25.37;;
14681;SDS011;7429;52.498;13.480;2023-02-10T17:39:55;43.40;;;24.47;;
14681;SDS011;7429;52.498;13.480;2023-02-10T17:43:07;42.30;;;22.77;;
14681;SDS011;7429;52.498;13.480;2023-02-10T17:46:11;43.17;;;23.10;;
14681;SDS011;7429;52.498;13.480;2023-02-10T17:49:14;47.27;;;25.27;;
14681;SDS011;7429;52.498;13.480;2023-02-10T17:52:17;49.90;;;24.30;;
14681;SDS011;7429;52.498;13.480;2023-02-10T17:55:22;45.33;;;24.50;;
14681;SDS011;7429;52.498;13.480;2023-02-10T17:58:25;47.57;;;25.93;;
14681;SDS011;7429;52.498;13.480;2023-02-10T18:01:29;42.27;;;23.90;;
14681;SDS011;7429;52.498;13.480;2023-02-10T18:04:33;51.37;;;26.67;;
14681;SDS011;7429;52.498;13.480;2023-02-10T18:07:36;47.70;;;23.83;;
14681;SDS011;7429;52.498;13.480;2023-02-10T18:10:42;47.53;;;24.53;;
14681;SDS011;7429;52.498;13.480;2023-02-10T18:13:45;42.37;;;23.93;;
14681;SDS011;7429;52.498;13.480;2023-02-10T18:16:48;54.43;;;23.00;;
14681;SDS011;7429;52.498;13.480;2023-02-10T18:19:51;45.20;;;23.03;;
14681;SDS011;7429;52.498;13.480;2023-02-10T18:22:55;45.23;;;23.20;;
14681;SDS011;7429;52.498;13.480;2023-02-10T18:26:02;39.63;;;25.23;;
14681;SDS011;7429;52.498;13.480;2023-02-10T18:29:07;42.60;;;23.53;;